createdAt,value
2023-10-31T00:00:16.106Z,12.4
2023-10-31T00:01:16.617Z,12.4
2023-10-31T00:02:16.285Z,12.4
2023-10-31T00:03:16.960Z,12.4
2023-10-31T00:04:16.196Z,12.4
2023-10-31T00:05:18.695Z,12.4
2023-10-31T00:06:16.330Z,12.4
2023-10-31T00:07:16.449Z,12.4
2023-10-31T00:08:16.719Z,12.4
2023-10-31T00:09:16.095Z,12.4
2023-10-31T00:10:16.091Z,12.4
2023-10-31T00:11:16.120Z,12.3
2023-10-31T00:12:16.686Z,12.4
2023-10-31T00:13:16.150Z,12.3
2023-10-31T00:14:29.647Z,12.3
2023-10-31T00:15:16.677Z,12.2
2023-10-31T00:16:16.117Z,12.3
2023-10-31T00:17:16.715Z,12.3
2023-10-31T00:18:16.429Z,12.3
2023-10-31T00:19:16.451Z,12.3
2023-10-31T00:20:15.156Z,12.2
2023-10-31T00:21:18.524Z,12.2
2023-10-31T00:22:16.086Z,12.2
2023-10-31T00:23:16.113Z,12.1
2023-10-31T00:24:16.950Z,12.2
2023-10-31T00:25:16.099Z,12.2
2023-10-31T00:26:16.100Z,12.2
2023-10-31T00:27:16.075Z,12.2
2023-10-31T00:28:16.081Z,12.2
2023-10-31T00:29:16.151Z,12.1
2023-10-31T00:30:16.097Z,12.1
2023-10-31T00:31:16.104Z,12.1
2023-10-31T00:32:16.114Z,12.1
2023-10-31T00:33:16.272Z,12.1
2023-10-31T00:34:16.184Z,12.1
2023-10-31T00:35:16.135Z,12.2
2023-10-31T00:36:16.075Z,12.1
2023-10-31T00:37:16.100Z,12.1
2023-10-31T00:38:16.126Z,12.1
2023-10-31T00:39:16.101Z,12.1
2023-10-31T00:40:16.671Z,12.2
2023-10-31T00:41:16.084Z,12.2
2023-10-31T00:42:16.102Z,12.2
2023-10-31T00:43:16.140Z,12.2
2023-10-31T00:44:16.103Z,12.2
2023-10-31T00:45:16.447Z,12.2
2023-10-31T00:46:16.293Z,12.2
2023-10-31T00:47:16.097Z,12.1
2023-10-31T00:48:16.672Z,12.2
2023-10-31T00:49:16.089Z,12.2
2023-10-31T00:50:15.697Z,12.2
2023-10-31T00:51:17.048Z,12.2
2023-10-31T00:52:16.128Z,12.2
2023-10-31T00:54:16.093Z,12.2
2023-10-31T00:55:16.103Z,12.1
2023-10-31T00:56:16.101Z,12.1
2023-10-31T00:57:16.528Z,12.1
2023-10-31T00:58:16.107Z,12.1
2023-10-31T00:59:16.140Z,12.1
2023-10-31T01:00:16.143Z,12.1
2023-10-31T01:01:16.607Z,12.1
2023-10-31T01:02:16.372Z,12.1
2023-10-31T01:03:16.515Z,12.1
2023-10-31T01:04:16.446Z,12.1
2023-10-31T01:05:16.171Z,12
2023-10-31T01:06:16.588Z,12
2023-10-31T01:07:16.123Z,12
2023-10-31T01:08:16.085Z,12
2023-10-31T01:09:16.546Z,12
2023-10-31T01:10:16.092Z,12
2023-10-31T01:11:16.910Z,12
2023-10-31T01:12:16.454Z,12
2023-10-31T01:13:16.469Z,12
2023-10-31T01:14:16.646Z,11.9
2023-10-31T01:15:16.101Z,11.9
2023-10-31T01:16:16.862Z,11.9
2023-10-31T01:17:16.958Z,11.9
2023-10-31T01:18:16.118Z,11.9
2023-10-31T01:19:16.116Z,11.8
2023-10-31T01:20:15.247Z,11.8
2023-10-31T01:21:16.098Z,11.8
2023-10-31T01:22:16.143Z,11.8
2023-10-31T01:23:16.566Z,11.8
2023-10-31T01:24:17.030Z,11.9
2023-10-31T01:25:16.100Z,11.8
2023-10-31T01:26:16.276Z,11.9
2023-10-31T01:27:16.849Z,11.8
2023-10-31T01:28:16.352Z,11.8
2023-10-31T01:29:16.101Z,11.7
2023-10-31T01:30:16.137Z,11.7
2023-10-31T01:31:16.135Z,11.7
2023-10-31T01:32:22.048Z,11.7
2023-10-31T01:33:16.322Z,11.7
2023-10-31T01:34:16.120Z,11.7
2023-10-31T01:35:16.146Z,11.7
2023-10-31T01:36:16.900Z,11.7
2023-10-31T01:38:16.413Z,11.6
2023-10-31T01:39:16.084Z,11.6
2023-10-31T01:40:16.333Z,11.6
2023-10-31T01:41:16.123Z,11.6
2023-10-31T01:42:16.156Z,11.6
2023-10-31T01:43:16.734Z,11.6
2023-10-31T01:44:16.673Z,11.6
2023-10-31T01:45:16.103Z,11.5
2023-10-31T01:46:16.145Z,11.5
2023-10-31T01:47:16.164Z,11.4
2023-10-31T01:48:16.114Z,11.4
2023-10-31T01:49:16.294Z,11.4
2023-10-31T01:50:15.545Z,11.4
2023-10-31T01:51:16.163Z,11.5
2023-10-31T01:52:16.097Z,11.5
2023-10-31T01:53:16.120Z,11.5
2023-10-31T01:54:16.726Z,11.4
2023-10-31T01:55:16.109Z,11.4
2023-10-31T01:56:16.842Z,11.4
2023-10-31T01:57:16.861Z,11.4
2023-10-31T01:58:16.101Z,11.4
2023-10-31T01:59:16.802Z,11.4
2023-10-31T02:00:16.146Z,11.4
2023-10-31T02:01:16.631Z,11.4
2023-10-31T02:02:16.150Z,11.4
2023-10-31T02:03:15.979Z,11.4
2023-10-31T02:04:16.725Z,11.4
2023-10-31T02:05:16.217Z,11.4
2023-10-31T02:06:16.490Z,11.4
2023-10-31T02:07:16.743Z,11.4
2023-10-31T02:08:16.102Z,11.5
2023-10-31T02:09:16.370Z,11.4
2023-10-31T02:10:16.330Z,11.5
2023-10-31T02:11:16.123Z,11.4
2023-10-31T02:12:16.304Z,11.3
2023-10-31T02:13:16.127Z,11.3
2023-10-31T02:14:16.778Z,11.2
2023-10-31T02:16:16.158Z,11.2
2023-10-31T02:17:16.111Z,11.2
2023-10-31T02:18:16.108Z,11.2
2023-10-31T02:19:16.110Z,11.2
2023-10-31T02:20:15.776Z,11.2
2023-10-31T02:21:16.113Z,11.1
2023-10-31T02:22:16.122Z,11.1
2023-10-31T02:23:16.913Z,11
2023-10-31T02:24:16.114Z,11.1
2023-10-31T02:25:16.928Z,11.1
2023-10-31T02:26:16.155Z,11
2023-10-31T02:27:16.858Z,11
2023-10-31T02:28:16.692Z,11
2023-10-31T02:29:16.117Z,11
2023-10-31T02:30:18.029Z,11
2023-10-31T02:31:16.134Z,11
2023-10-31T02:32:16.201Z,11
2023-10-31T02:33:16.138Z,11
2023-10-31T02:34:16.240Z,10.9
2023-10-31T02:35:16.147Z,11
2023-10-31T02:36:16.113Z,10.9
2023-10-31T02:37:16.103Z,11
2023-10-31T02:38:16.125Z,10.9
2023-10-31T02:39:16.107Z,10.9
2023-10-31T02:40:16.252Z,10.9
2023-10-31T02:41:16.113Z,10.9
2023-10-31T02:42:16.102Z,10.9
2023-10-31T02:43:16.142Z,11
2023-10-31T02:44:16.267Z,10.9
2023-10-31T02:45:16.107Z,10.9
2023-10-31T02:46:16.986Z,10.9
2023-10-31T02:47:16.438Z,10.9
2023-10-31T02:48:16.111Z,10.9
2023-10-31T02:49:16.106Z,10.9
2023-10-31T02:50:15.769Z,10.8
2023-10-31T02:51:16.104Z,10.9
2023-10-31T02:52:16.099Z,10.9
2023-10-31T02:53:16.146Z,10.8
2023-10-31T02:54:16.122Z,10.8
2023-10-31T02:55:16.135Z,10.8
2023-10-31T02:56:16.561Z,10.7
2023-10-31T02:57:16.812Z,10.8
2023-10-31T02:58:16.095Z,10.7
2023-10-31T02:59:16.666Z,10.7
2023-10-31T03:00:16.384Z,10.7
2023-10-31T03:01:16.123Z,10.7
2023-10-31T03:02:16.171Z,10.6
2023-10-31T03:03:16.189Z,10.6
2023-10-31T03:04:16.112Z,10.6
2023-10-31T03:05:16.293Z,10.6
2023-10-31T03:06:16.120Z,10.7
2023-10-31T03:07:17.087Z,10.7
2023-10-31T03:09:16.115Z,10.7
2023-10-31T03:10:16.883Z,10.7
2023-10-31T03:11:16.126Z,10.7
2023-10-31T03:12:16.110Z,10.6
2023-10-31T03:13:16.115Z,10.7
2023-10-31T03:14:16.190Z,10.7
2023-10-31T03:15:16.135Z,10.7
2023-10-31T03:16:16.116Z,10.7
2023-10-31T03:17:16.210Z,10.7
2023-10-31T03:18:16.226Z,10.7
2023-10-31T03:19:16.308Z,10.7
2023-10-31T03:20:15.184Z,10.7
2023-10-31T03:21:16.163Z,10.7
2023-10-31T03:22:16.681Z,10.7
2023-10-31T03:23:16.190Z,10.7
2023-10-31T03:24:16.119Z,10.7
2023-10-31T03:25:16.096Z,10.7
2023-10-31T03:26:16.158Z,10.7
2023-10-31T03:27:16.130Z,10.8
2023-10-31T03:28:16.704Z,10.8
2023-10-31T03:29:16.573Z,10.8
2023-10-31T03:30:10.036Z,10.8
2023-10-31T03:31:16.155Z,10.8
2023-10-31T03:32:16.185Z,10.8
2023-10-31T03:33:16.368Z,10.8
2023-10-31T03:34:16.148Z,10.8
2023-10-31T03:35:16.172Z,10.8
2023-10-31T03:36:16.551Z,10.8
2023-10-31T03:38:16.227Z,10.8
2023-10-31T03:39:16.117Z,10.8
2023-10-31T03:40:16.137Z,10.8
2023-10-31T03:41:16.183Z,10.9
2023-10-31T03:42:16.098Z,10.9
2023-10-31T03:43:16.132Z,10.9
2023-10-31T03:44:16.167Z,10.9
2023-10-31T03:45:16.706Z,10.9
2023-10-31T03:46:16.815Z,10.9
2023-10-31T03:47:16.135Z,10.9
2023-10-31T03:48:16.660Z,10.9
2023-10-31T03:49:16.117Z,10.9
2023-10-31T03:50:15.475Z,11
2023-10-31T03:51:16.132Z,11
2023-10-31T03:52:16.637Z,11
2023-10-31T03:53:16.131Z,11
2023-10-31T03:54:16.243Z,11
2023-10-31T03:55:16.497Z,10.9
2023-10-31T03:56:16.624Z,11
2023-10-31T03:57:16.146Z,11
2023-10-31T03:58:16.890Z,11
2023-10-31T03:59:16.174Z,11
2023-10-31T04:00:16.456Z,11
2023-10-31T04:01:16.381Z,11
2023-10-31T04:02:16.197Z,11
2023-10-31T04:03:16.235Z,11
2023-10-31T04:04:16.111Z,11
2023-10-31T04:05:16.717Z,11
2023-10-31T04:06:16.129Z,11
2023-10-31T04:07:16.308Z,11
2023-10-31T04:08:16.165Z,11
2023-10-31T04:10:16.353Z,11
2023-10-31T04:11:16.130Z,11
2023-10-31T04:12:16.118Z,11
2023-10-31T04:13:16.132Z,11
2023-10-31T04:14:16.134Z,11
2023-10-31T04:15:16.274Z,11
2023-10-31T04:16:16.166Z,11
2023-10-31T04:17:16.146Z,11
2023-10-31T04:18:16.132Z,11
2023-10-31T04:19:16.125Z,11
2023-10-31T04:20:16.001Z,11
2023-10-31T04:21:16.125Z,11
2023-10-31T04:22:16.656Z,11.1
2023-10-31T04:23:16.435Z,11.1
2023-10-31T04:24:16.219Z,11.1
2023-10-31T04:25:16.130Z,11.1
2023-10-31T04:26:16.160Z,11.1
2023-10-31T04:27:16.148Z,11
2023-10-31T04:28:16.715Z,11
2023-10-31T04:29:16.132Z,11.1
2023-10-31T04:30:16.106Z,11
2023-10-31T04:31:16.560Z,11
2023-10-31T04:32:16.136Z,11
2023-10-31T04:33:15.351Z,11
2023-10-31T04:34:16.129Z,11
2023-10-31T04:35:16.188Z,11
2023-10-31T04:36:16.950Z,11
2023-10-31T04:37:16.130Z,11
2023-10-31T04:38:16.389Z,11
2023-10-31T04:39:16.104Z,11
2023-10-31T04:41:16.155Z,11
2023-10-31T04:42:16.237Z,11
2023-10-31T04:43:16.187Z,11
2023-10-31T04:44:16.395Z,11.1
2023-10-31T04:45:16.207Z,11.1
2023-10-31T04:46:16.769Z,11
2023-10-31T04:47:16.244Z,11.1
2023-10-31T04:48:16.540Z,11
2023-10-31T04:49:16.124Z,11
2023-10-31T04:50:15.803Z,11
2023-10-31T04:51:16.135Z,11
2023-10-31T04:52:16.122Z,11
2023-10-31T04:53:16.131Z,11
2023-10-31T04:54:16.108Z,11
2023-10-31T04:55:18.547Z,11
2023-10-31T04:56:16.171Z,11
2023-10-31T04:57:16.171Z,11.1
2023-10-31T04:58:16.128Z,11.1
2023-10-31T04:59:16.193Z,11.1
2023-10-31T05:00:16.119Z,11
2023-10-31T05:01:16.507Z,11
2023-10-31T05:02:16.185Z,11
2023-10-31T05:03:18.568Z,11
2023-10-31T05:04:16.465Z,11
2023-10-31T05:05:16.677Z,10.9
2023-10-31T05:06:16.121Z,11
2023-10-31T05:07:16.556Z,11
2023-10-31T05:08:16.258Z,10.9
2023-10-31T05:09:16.821Z,11
2023-10-31T05:10:16.723Z,11
2023-10-31T05:11:16.690Z,11
2023-10-31T05:12:16.140Z,11.1
2023-10-31T05:13:16.275Z,11.1
2023-10-31T05:14:16.870Z,11
2023-10-31T05:15:16.443Z,11.1
2023-10-31T05:16:16.185Z,11.1
2023-10-31T05:17:16.192Z,11.1
2023-10-31T05:18:16.311Z,11.1
2023-10-31T05:19:16.611Z,11.1
2023-10-31T05:20:15.249Z,11.1
2023-10-31T05:21:16.396Z,11.1
2023-10-31T05:22:16.562Z,11.1
2023-10-31T05:23:16.165Z,11.1
2023-10-31T05:25:16.134Z,11.1
2023-10-31T05:26:16.180Z,11.1
2023-10-31T05:27:16.649Z,11.2
2023-10-31T05:28:16.113Z,11.2
2023-10-31T05:29:16.200Z,11.2
2023-10-31T05:30:16.126Z,11.2
2023-10-31T05:31:16.213Z,11.2
2023-10-31T05:32:16.298Z,11.2
2023-10-31T05:33:16.122Z,11.2
2023-10-31T05:34:16.176Z,11.2
2023-10-31T05:35:16.660Z,11.2
2023-10-31T05:36:16.186Z,11.3
2023-10-31T05:37:16.600Z,11.3
2023-10-31T05:38:16.170Z,11.3
2023-10-31T05:39:16.171Z,11.3
2023-10-31T05:40:16.822Z,11.3
2023-10-31T05:41:16.931Z,11.4
2023-10-31T05:42:16.641Z,11.4
2023-10-31T05:43:16.177Z,11.4
2023-10-31T05:44:16.177Z,11.4
2023-10-31T05:45:16.123Z,11.4
2023-10-31T05:46:16.270Z,11.4
2023-10-31T05:47:16.155Z,11.4
2023-10-31T05:48:16.463Z,11.4
2023-10-31T05:49:16.324Z,11.4
2023-10-31T05:50:15.737Z,11.4
2023-10-31T05:51:16.219Z,11.4
2023-10-31T05:52:16.409Z,11.4
2023-10-31T05:53:16.213Z,11.5
2023-10-31T05:54:16.265Z,11.5
2023-10-31T05:55:16.161Z,11.4
2023-10-31T05:56:16.816Z,11.5
2023-10-31T05:57:16.960Z,11.5
2023-10-31T05:58:18.017Z,11.5
2023-10-31T05:59:16.714Z,11.5
2023-10-31T06:00:16.853Z,11.4
2023-10-31T06:01:16.712Z,11.4
2023-10-31T06:02:16.234Z,11.4
2023-10-31T06:03:16.223Z,11.4
2023-10-31T06:04:16.193Z,11.4
2023-10-31T06:05:16.275Z,11.4
2023-10-31T06:06:16.800Z,11.5
2023-10-31T06:07:16.250Z,11.5
2023-10-31T06:08:16.279Z,11.4
2023-10-31T06:09:16.142Z,11.4
2023-10-31T06:10:16.219Z,11.4
2023-10-31T06:11:16.218Z,11.4
2023-10-31T06:12:16.214Z,11.4
2023-10-31T06:13:16.129Z,11.5
2023-10-31T06:14:16.883Z,11.5
2023-10-31T06:15:16.567Z,11.5
2023-10-31T06:16:16.182Z,11.4
2023-10-31T06:17:16.177Z,11.4
2023-10-31T06:18:16.121Z,11.5
2023-10-31T06:19:16.125Z,11.5
2023-10-31T06:20:15.294Z,11.5
2023-10-31T06:21:16.170Z,11.5
2023-10-31T06:22:16.204Z,11.5
2023-10-31T06:23:16.203Z,11.5
2023-10-31T06:24:16.161Z,11.5
2023-10-31T06:25:16.127Z,11.5
2023-10-31T06:26:16.163Z,11.5
2023-10-31T06:27:16.132Z,11.5
2023-10-31T06:28:16.133Z,11.5
2023-10-31T06:29:37.455Z,11.5
2023-10-31T06:30:23.674Z,11.5
2023-10-31T06:31:16.134Z,11.5
2023-10-31T06:32:16.599Z,11.5
2023-10-31T06:33:16.191Z,11.5
2023-10-31T06:34:16.220Z,11.5
2023-10-31T06:35:16.148Z,11.5
2023-10-31T06:36:16.135Z,11.5
2023-10-31T06:37:16.539Z,11.4
2023-10-31T06:38:16.163Z,11.4
2023-10-31T06:39:16.129Z,11.4
2023-10-31T06:40:16.839Z,11.5
2023-10-31T06:41:16.174Z,11.5
2023-10-31T06:42:16.661Z,11.5
2023-10-31T06:43:16.137Z,11.5
2023-10-31T06:44:16.168Z,11.4
2023-10-31T06:45:16.120Z,11.4
2023-10-31T06:46:16.165Z,11.5
2023-10-31T06:47:16.740Z,11.5
2023-10-31T06:48:16.541Z,11.5
2023-10-31T06:49:16.133Z,11.4
2023-10-31T06:50:17.941Z,11.4
2023-10-31T06:51:16.166Z,11.4
2023-10-31T06:52:16.198Z,11.4
2023-10-31T06:53:16.764Z,11.4
2023-10-31T06:54:16.316Z,11.4
2023-10-31T06:55:16.727Z,11.4
2023-10-31T06:56:16.151Z,11.4
2023-10-31T06:57:16.486Z,11.4
2023-10-31T06:58:16.134Z,11.4
2023-10-31T06:59:16.151Z,11.4
2023-10-31T07:00:16.459Z,11.4
2023-10-31T07:01:16.143Z,11.4
2023-10-31T07:02:16.630Z,11.4
2023-10-31T07:03:15.363Z,11.4
2023-10-31T07:04:16.148Z,11.4
2023-10-31T07:05:16.264Z,11.4
2023-10-31T07:06:16.152Z,11.5
2023-10-31T07:07:16.622Z,11.5
2023-10-31T07:09:18.302Z,11.4
2023-10-31T07:11:16.953Z,11.5
2023-10-31T07:12:16.114Z,11.4
2023-10-31T07:13:16.683Z,11.4
2023-10-31T07:14:16.949Z,11.4
2023-10-31T07:15:16.171Z,11.5
2023-10-31T07:16:16.192Z,11.5
2023-10-31T07:17:16.139Z,11.4
2023-10-31T07:18:16.129Z,11.4
2023-10-31T07:19:16.374Z,11.5
2023-10-31T07:20:15.230Z,11.5
2023-10-31T07:21:16.340Z,11.5
2023-10-31T07:22:16.138Z,11.5
2023-10-31T07:23:16.172Z,11.5
2023-10-31T07:24:16.825Z,11.6
2023-10-31T07:25:16.552Z,11.6
2023-10-31T07:26:16.187Z,11.6
2023-10-31T07:27:16.144Z,11.5
2023-10-31T07:28:16.134Z,11.5
2023-10-31T07:29:16.772Z,11.6
2023-10-31T07:30:16.137Z,11.5
2023-10-31T07:31:16.199Z,11.6
2023-10-31T07:32:16.413Z,11.5
2023-10-31T07:33:16.250Z,11.5
2023-10-31T07:34:16.205Z,11.5
2023-10-31T07:35:16.309Z,11.5
2023-10-31T07:36:17.006Z,11.6
2023-10-31T07:38:16.178Z,11.6
2023-10-31T07:39:16.522Z,11.7
2023-10-31T07:40:16.138Z,11.6
2023-10-31T07:41:16.734Z,11.7
2023-10-31T07:42:16.142Z,11.7
2023-10-31T07:43:16.137Z,11.7
2023-10-31T07:44:16.178Z,11.7
2023-10-31T07:45:16.137Z,11.7
2023-10-31T07:46:16.173Z,11.8
2023-10-31T07:47:16.687Z,11.8
2023-10-31T07:48:16.226Z,11.8
2023-10-31T07:49:16.148Z,11.8
2023-10-31T07:50:15.637Z,11.7
2023-10-31T07:51:16.129Z,11.7
2023-10-31T07:52:16.146Z,11.7
2023-10-31T07:53:16.903Z,11.7
2023-10-31T07:54:16.196Z,11.7
2023-10-31T07:55:16.130Z,11.7
2023-10-31T07:56:16.738Z,11.7
2023-10-31T07:57:16.767Z,11.7
2023-10-31T07:58:16.544Z,11.6
2023-10-31T07:59:16.426Z,11.6
2023-10-31T08:00:16.151Z,11.7
2023-10-31T08:01:16.152Z,11.7
2023-10-31T08:02:16.478Z,11.7
2023-10-31T08:03:16.257Z,11.7
2023-10-31T08:04:16.637Z,11.7
2023-10-31T08:05:16.208Z,11.8
2023-10-31T08:06:16.170Z,11.7
2023-10-31T08:07:16.407Z,11.8
2023-10-31T08:08:16.808Z,11.7
2023-10-31T08:09:16.150Z,11.7
2023-10-31T08:10:16.939Z,11.8
2023-10-31T08:11:16.214Z,11.8
2023-10-31T08:12:16.722Z,11.8
2023-10-31T08:13:16.420Z,11.8
2023-10-31T08:14:16.170Z,11.8
2023-10-31T08:15:16.216Z,11.9
2023-10-31T08:16:16.836Z,11.8
2023-10-31T08:17:16.778Z,11.8
2023-10-31T08:18:16.612Z,11.9
2023-10-31T08:19:16.130Z,11.8
2023-10-31T08:20:16.146Z,11.8
2023-10-31T08:21:16.150Z,11.9
2023-10-31T08:22:16.178Z,11.9
2023-10-31T08:23:16.182Z,11.9
2023-10-31T08:24:16.678Z,11.9
2023-10-31T08:26:16.180Z,11.9
2023-10-31T08:27:16.447Z,11.9
2023-10-31T08:28:16.780Z,11.9
2023-10-31T08:29:16.176Z,12
2023-10-31T08:30:16.200Z,11.9
2023-10-31T08:31:16.208Z,11.9
2023-10-31T08:32:16.739Z,11.9
2023-10-31T08:33:16.295Z,11.9
2023-10-31T08:34:16.712Z,12
2023-10-31T08:35:16.615Z,12
2023-10-31T08:36:16.139Z,12
2023-10-31T08:39:16.138Z,12
2023-10-31T08:40:16.725Z,11.9
2023-10-31T08:42:16.636Z,11.9
2023-10-31T08:43:17.307Z,12
2023-10-31T08:44:16.164Z,12
2023-10-31T08:45:16.776Z,12
2023-10-31T08:46:16.357Z,12
2023-10-31T08:47:16.378Z,12
2023-10-31T08:48:16.796Z,12
2023-10-31T08:49:16.884Z,12
2023-10-31T08:50:15.517Z,12.1
2023-10-31T08:51:16.148Z,12.1
2023-10-31T08:52:16.589Z,12
2023-10-31T08:53:16.195Z,12.1
2023-10-31T08:54:16.215Z,12.1
2023-10-31T08:55:16.701Z,12.1
2023-10-31T08:56:16.233Z,12.1
2023-10-31T08:58:16.437Z,12.1
2023-10-31T08:59:16.231Z,12.1
2023-10-31T09:00:16.552Z,12.1
2023-10-31T09:01:16.910Z,12.1
2023-10-31T09:02:16.192Z,12.1
2023-10-31T09:03:16.317Z,12.1
2023-10-31T09:04:16.210Z,12.2
2023-10-31T09:05:16.172Z,12.2
2023-10-31T09:06:16.638Z,12.2
2023-10-31T09:07:16.716Z,12.2
2023-10-31T09:08:16.212Z,12.3
2023-10-31T09:09:16.239Z,12.2
2023-10-31T09:10:16.657Z,12.2
2023-10-31T09:11:16.732Z,12.2
2023-10-31T09:12:16.145Z,12.2
2023-10-31T09:13:16.462Z,12.2
2023-10-31T09:14:16.219Z,12.2
2023-10-31T09:15:16.270Z,12.2
2023-10-31T09:16:16.206Z,12.2
2023-10-31T09:17:16.177Z,12.2
2023-10-31T09:18:17.085Z,12.2
2023-10-31T09:19:16.237Z,12.2
2023-10-31T09:20:15.285Z,12.2
2023-10-31T09:21:16.470Z,12.2
2023-10-31T09:22:17.102Z,12.2
2023-10-31T09:23:16.579Z,12.2
2023-10-31T09:24:16.160Z,12.2
2023-10-31T09:25:16.604Z,12.2
2023-10-31T09:26:16.338Z,12.3
2023-10-31T09:27:16.141Z,12.2
2023-10-31T09:28:16.630Z,12.2
2023-10-31T09:29:25.706Z,12.2
2023-10-31T09:30:16.133Z,12.2
2023-10-31T09:31:16.161Z,12.2
2023-10-31T09:32:16.395Z,12.2
2023-10-31T09:33:15.842Z,12.2
2023-10-31T09:34:16.141Z,12.2
2023-10-31T09:35:16.205Z,12.2
2023-10-31T09:36:16.166Z,12.2
2023-10-31T09:38:16.179Z,12.2
2023-10-31T09:39:16.161Z,12.2
2023-10-31T09:40:16.140Z,12.2
2023-10-31T09:41:16.399Z,12.2
2023-10-31T09:42:16.599Z,12.2
2023-10-31T09:43:16.152Z,12.2
2023-10-31T09:44:16.173Z,12.3
2023-10-31T09:45:16.212Z,12.3
2023-10-31T09:46:17.019Z,12.3
2023-10-31T09:48:16.152Z,12.2
2023-10-31T09:49:17.094Z,12.3
2023-10-31T09:50:15.341Z,12.3
2023-10-31T09:51:16.173Z,12.3
2023-10-31T09:52:16.182Z,12.3
2023-10-31T09:53:16.604Z,12.3
2023-10-31T09:54:16.140Z,12.3
2023-10-31T09:55:16.341Z,12.4
2023-10-31T09:56:16.684Z,12.4
2023-10-31T09:57:17.005Z,12.4
2023-10-31T09:58:16.993Z,12.4
2023-10-31T09:59:16.210Z,12.4
2023-10-31T10:00:16.196Z,12.4
2023-10-31T10:01:16.185Z,12.4
2023-10-31T10:02:16.249Z,12.4
2023-10-31T10:03:16.326Z,12.5
2023-10-31T10:04:17.008Z,12.5
2023-10-31T10:05:16.178Z,12.5
2023-10-31T10:06:17.023Z,12.6
2023-10-31T10:08:16.499Z,12.6
2023-10-31T10:09:16.156Z,12.6
2023-10-31T10:10:16.325Z,12.6
2023-10-31T10:11:16.221Z,12.6
2023-10-31T10:12:16.201Z,12.6
2023-10-31T10:13:16.390Z,12.6
2023-10-31T10:14:16.579Z,12.6
2023-10-31T10:15:16.190Z,12.6
2023-10-31T10:16:16.380Z,12.6
2023-10-31T10:18:16.455Z,12.7
2023-10-31T10:19:16.827Z,12.7
2023-10-31T10:20:15.577Z,12.8
2023-10-31T10:21:16.894Z,12.8
2023-10-31T10:22:16.255Z,12.8
2023-10-31T10:23:16.857Z,12.8
2023-10-31T10:24:16.164Z,12.8
2023-10-31T10:25:16.156Z,12.9
2023-10-31T10:26:16.165Z,12.9
2023-10-31T10:27:16.704Z,13
2023-10-31T10:28:16.132Z,13
2023-10-31T10:29:16.202Z,13.1
2023-10-31T10:30:16.222Z,13.1
2023-10-31T10:31:16.187Z,13.2
2023-10-31T10:32:16.161Z,13.1
2023-10-31T10:33:16.757Z,13.1
2023-10-31T10:34:16.549Z,13.2
2023-10-31T10:35:16.208Z,13.2
2023-10-31T10:36:16.741Z,13.3
2023-10-31T10:37:16.150Z,13.3
2023-10-31T10:38:16.219Z,13.4
2023-10-31T10:39:16.409Z,13.4
2023-10-31T10:40:16.156Z,13.4
2023-10-31T10:41:16.147Z,13.4
2023-10-31T10:42:16.616Z,13.5
2023-10-31T10:44:16.198Z,13.6
2023-10-31T10:45:16.153Z,13.6
2023-10-31T10:46:16.222Z,13.7
2023-10-31T10:47:16.421Z,13.8
2023-10-31T10:48:16.187Z,13.8
2023-10-31T10:49:16.637Z,13.8
2023-10-31T10:50:15.750Z,13.9
2023-10-31T10:51:16.623Z,13.9
2023-10-31T10:52:16.167Z,13.9
2023-10-31T10:53:16.217Z,13.9
2023-10-31T10:54:16.204Z,13.8
2023-10-31T10:55:16.289Z,13.8
2023-10-31T10:56:16.272Z,13.7
2023-10-31T10:57:16.233Z,13.8
2023-10-31T10:58:16.266Z,13.8
2023-10-31T10:59:16.380Z,13.7
2023-10-31T11:00:16.436Z,13.7
2023-10-31T11:01:18.107Z,13.8
2023-10-31T11:02:16.453Z,13.8
2023-10-31T11:03:16.161Z,13.8
2023-10-31T11:04:16.178Z,13.8
2023-10-31T11:05:16.555Z,13.7
2023-10-31T11:06:16.941Z,13.6
2023-10-31T11:07:16.640Z,13.8
2023-10-31T11:08:16.202Z,13.7
2023-10-31T11:09:16.299Z,13.7
2023-10-31T11:10:16.205Z,13.6
2023-10-31T11:11:16.182Z,13.7
2023-10-31T11:12:16.690Z,13.7
2023-10-31T11:13:17.127Z,13.7
2023-10-31T11:14:16.184Z,13.7
2023-10-31T11:15:16.919Z,13.8
2023-10-31T11:16:17.090Z,13.7
2023-10-31T11:17:16.923Z,13.5
2023-10-31T11:18:16.482Z,13.7
2023-10-31T11:19:17.041Z,13.8
2023-10-31T11:20:16.265Z,13.8
2023-10-31T11:21:16.216Z,13.6
2023-10-31T11:22:16.980Z,13.7
2023-10-31T11:23:16.207Z,13.6
2023-10-31T11:24:16.152Z,13.7
2023-10-31T11:25:22.599Z,13.8
2023-10-31T11:26:16.192Z,13.8
2023-10-31T11:27:16.219Z,13.8
2023-10-31T11:28:16.734Z,13.8
2023-10-31T11:29:16.174Z,13.8
2023-10-31T11:31:16.563Z,13.9
2023-10-31T11:32:16.197Z,13.9
2023-10-31T11:33:16.227Z,13.9
2023-10-31T11:34:16.901Z,13.9
2023-10-31T11:35:16.210Z,13.9
2023-10-31T11:36:16.162Z,14
2023-10-31T11:37:16.724Z,14
2023-10-31T11:38:16.187Z,14.1
2023-10-31T11:39:16.656Z,14.1
2023-10-31T11:40:16.276Z,14
2023-10-31T11:41:16.681Z,14.1
2023-10-31T11:42:16.178Z,14.1
2023-10-31T11:43:16.421Z,14.1
2023-10-31T11:44:16.716Z,14
2023-10-31T11:45:16.847Z,13.8
2023-10-31T11:46:16.186Z,13.7
2023-10-31T11:47:16.193Z,13.8
2023-10-31T11:48:16.248Z,13.9
2023-10-31T11:50:15.254Z,14
2023-10-31T11:51:16.165Z,14
2023-10-31T11:52:15.281Z,14
2023-10-31T11:53:16.226Z,14
2023-10-31T11:54:16.176Z,14
2023-10-31T11:55:16.760Z,14
2023-10-31T11:56:16.169Z,14
2023-10-31T11:57:16.385Z,14
2023-10-31T11:58:16.879Z,14.1
2023-10-31T11:59:16.522Z,14.1
2023-10-31T12:00:16.232Z,14.1
2023-10-31T12:01:16.921Z,14
2023-10-31T12:02:16.229Z,14
2023-10-31T12:03:22.593Z,14.1
2023-10-31T12:04:16.205Z,14
2023-10-31T12:05:16.426Z,14.1
2023-10-31T12:06:16.199Z,13.9
2023-10-31T12:07:16.228Z,13.7
2023-10-31T12:08:16.216Z,13.8
2023-10-31T12:09:16.162Z,13.9
2023-10-31T12:10:16.162Z,13.8
2023-10-31T12:11:16.987Z,13.8
2023-10-31T12:12:16.279Z,13.8
2023-10-31T12:13:16.165Z,13.8
2023-10-31T12:14:16.775Z,13.9
2023-10-31T12:15:16.156Z,13.7
2023-10-31T12:16:16.852Z,14.1
2023-10-31T12:18:16.210Z,14.1
2023-10-31T12:19:16.246Z,14.2
2023-10-31T12:20:15.247Z,14.1
2023-10-31T12:21:16.205Z,14
2023-10-31T12:22:16.177Z,13.8
2023-10-31T12:23:16.857Z,14
2023-10-31T12:24:16.882Z,14.1
2023-10-31T12:26:16.553Z,14.4
2023-10-31T12:27:16.172Z,14.5
2023-10-31T12:28:16.164Z,14.1
2023-10-31T12:29:16.973Z,13.9
2023-10-31T12:30:16.174Z,14
2023-10-31T12:31:16.239Z,13.8
2023-10-31T12:32:16.715Z,13.9
2023-10-31T12:33:16.223Z,13.8
2023-10-31T12:34:16.166Z,13.8
2023-10-31T12:35:16.577Z,13.7
2023-10-31T12:36:16.176Z,13.8
2023-10-31T12:37:16.176Z,13.7
2023-10-31T12:38:16.216Z,13.6
2023-10-31T12:39:17.120Z,13.5
2023-10-31T12:40:16.192Z,13.4
2023-10-31T12:41:17.510Z,13.6
2023-10-31T12:42:16.171Z,13.5
2023-10-31T12:43:16.151Z,13.5
2023-10-31T12:44:16.393Z,13.6
2023-10-31T12:45:16.177Z,13.6
2023-10-31T12:46:16.583Z,13.5
2023-10-31T12:47:16.205Z,13.7
2023-10-31T12:48:16.217Z,13.5
2023-10-31T12:49:16.184Z,13.6
2023-10-31T12:50:15.750Z,13.4
2023-10-31T12:51:16.173Z,13.5
2023-10-31T12:52:16.914Z,13.3
2023-10-31T12:53:16.979Z,13.5
2023-10-31T12:54:16.174Z,13.8
2023-10-31T12:55:18.082Z,13.5
2023-10-31T12:56:16.690Z,13.5
2023-10-31T12:58:16.248Z,13.5
2023-10-31T12:59:16.549Z,13.6
2023-10-31T13:00:16.627Z,13.7
2023-10-31T13:02:16.337Z,13.7
2023-10-31T13:03:16.406Z,13.8
2023-10-31T13:04:16.271Z,13.5
2023-10-31T13:05:16.633Z,13.6
2023-10-31T13:06:16.190Z,13.7
2023-10-31T13:07:16.464Z,13.6
2023-10-31T13:08:16.250Z,13
2023-10-31T13:09:16.508Z,13.5
2023-10-31T13:10:16.183Z,13.6
2023-10-31T13:12:16.186Z,13.4
2023-10-31T13:13:16.178Z,13.3
2023-10-31T13:14:16.240Z,13.4
2023-10-31T13:15:16.175Z,13.4
2023-10-31T13:16:16.232Z,13.4
2023-10-31T13:17:16.419Z,13.7
2023-10-31T13:18:16.200Z,13.1
2023-10-31T13:19:17.226Z,13.1
2023-10-31T13:20:15.580Z,13
2023-10-31T13:21:16.240Z,13.3
2023-10-31T13:22:16.747Z,13.3
2023-10-31T13:23:16.641Z,13.2
2023-10-31T13:24:16.181Z,13.2
2023-10-31T13:25:16.212Z,13.1
2023-10-31T13:26:16.382Z,13.3
2023-10-31T13:27:16.183Z,13.6
2023-10-31T13:28:16.192Z,13.5
2023-10-31T13:30:16.177Z,13.5
2023-10-31T13:31:16.988Z,13.1
2023-10-31T13:32:16.376Z,13
2023-10-31T13:33:16.923Z,13.4
2023-10-31T13:34:16.238Z,13.4
2023-10-31T13:35:16.322Z,13.4
2023-10-31T13:36:17.016Z,13.4
2023-10-31T13:38:16.230Z,13.3
2023-10-31T13:39:16.577Z,13.5
2023-10-31T13:40:16.197Z,13.5
2023-10-31T13:41:16.206Z,13.4
2023-10-31T13:42:16.180Z,13.5
2023-10-31T13:43:16.456Z,13.5
2023-10-31T13:44:16.773Z,13.7
2023-10-31T13:45:16.190Z,13.7
2023-10-31T13:46:16.222Z,13.7
2023-10-31T13:47:16.195Z,13.7
2023-10-31T13:48:16.931Z,13.8
2023-10-31T13:49:16.165Z,13.4
2023-10-31T13:50:15.899Z,13.6
2023-10-31T13:51:18.952Z,13.6
2023-10-31T13:52:16.199Z,13.7
2023-10-31T13:53:16.267Z,14
2023-10-31T13:54:16.266Z,13.6
2023-10-31T13:55:16.212Z,13.7
2023-10-31T13:56:16.917Z,13.7